createdAt,value
2016-07-24T00:00:42.889Z,0
2016-07-24T00:01:43.636Z,0
2016-07-24T00:02:43.674Z,0
2016-07-24T00:03:43.000Z,0
2016-07-24T00:04:43.786Z,0
2016-07-24T00:05:43.839Z,0
2016-07-24T00:06:42.486Z,0
2016-07-24T00:07:43.932Z,0
2016-07-24T00:08:43.985Z,0
2016-07-24T00:09:44.028Z,0
2016-07-24T00:10:44.093Z,0
2016-07-24T00:11:44.126Z,0
2016-07-24T00:12:44.136Z,0
2016-07-24T00:13:44.237Z,0
2016-07-24T00:14:43.526Z,0
2016-07-24T00:15:44.313Z,0
2016-07-24T00:16:44.368Z,0
2016-07-24T00:17:43.691Z,0
2016-07-24T00:18:44.442Z,0
2016-07-24T00:19:44.527Z,0
2016-07-24T00:20:43.833Z,0
2016-07-24T00:21:44.566Z,0
2016-07-24T00:22:43.234Z,0
2016-07-24T00:23:43.981Z,0
2016-07-24T00:24:44.014Z,0
2016-07-24T00:25:44.778Z,0
2016-07-24T00:26:44.797Z,0
2016-07-24T00:27:44.166Z,0
2016-07-24T00:28:44.916Z,0
2016-07-24T00:29:44.266Z,0
2016-07-24T00:30:44.307Z,0
2016-07-24T00:31:45.086Z,0
2016-07-24T00:32:45.097Z,0
2016-07-24T00:33:45.153Z,0
2016-07-24T00:34:44.511Z,0
2016-07-24T00:35:45.257Z,0
2016-07-24T00:36:45.333Z,0
2016-07-24T00:37:45.355Z,0
2016-07-24T00:38:45.419Z,0
2016-07-24T00:39:45.466Z,0
2016-07-24T00:40:45.508Z,0
2016-07-24T00:41:45.536Z,0
2016-07-24T00:42:45.824Z,0
2016-07-24T00:43:45.657Z,0
2016-07-24T00:44:45.686Z,0
2016-07-24T00:45:45.059Z,0
2016-07-24T00:46:45.062Z,0
2016-07-24T00:47:45.880Z,0
2016-07-24T00:48:45.874Z,0
2016-07-24T00:49:45.920Z,0
2016-07-24T00:50:44.565Z,0
2016-07-24T00:51:45.342Z,0
2016-07-24T00:52:46.075Z,0
2016-07-24T00:53:44.729Z,0
2016-07-24T00:54:46.201Z,0
2016-07-24T00:55:46.237Z,0
2016-07-24T00:56:45.556Z,0
2016-07-24T00:57:44.921Z,0
2016-07-24T00:58:46.345Z,0
2016-07-24T00:59:46.408Z,0
2016-07-24T01:00:45.752Z,0
2016-07-24T01:01:45.828Z,0
2016-07-24T01:02:45.847Z,0
2016-07-24T01:03:46.630Z,0
2016-07-24T01:04:46.682Z,0
2016-07-24T01:05:46.735Z,0
2016-07-24T01:06:46.757Z,0
2016-07-24T01:07:46.800Z,0
2016-07-24T01:08:45.425Z,0
2016-07-24T01:09:46.888Z,0
2016-07-24T01:10:46.958Z,0
2016-07-24T01:11:46.990Z,0
2016-07-24T01:12:47.031Z,0
2016-07-24T01:13:46.382Z,0
2016-07-24T01:14:46.449Z,0
2016-07-24T01:15:45.795Z,0
2016-07-24T01:16:46.524Z,0
2016-07-24T01:17:46.569Z,0
2016-07-24T01:18:47.348Z,0
2016-07-24T01:19:47.375Z,0
2016-07-24T01:20:46.732Z,0
2016-07-24T01:21:46.070Z,0
2016-07-24T01:22:46.829Z,0
2016-07-24T01:23:47.576Z,0
2016-07-24T01:24:47.617Z,0
2016-07-24T01:25:46.981Z,0
2016-07-24T01:26:47.738Z,0
2016-07-24T01:27:47.080Z,0
2016-07-24T01:28:47.086Z,0
2016-07-24T01:29:47.847Z,0
2016-07-24T01:30:47.179Z,0
2016-07-24T01:31:47.946Z,0
2016-07-24T01:32:47.274Z,0
2016-07-24T01:33:48.039Z,0
2016-07-24T01:34:48.100Z,0
2016-07-24T01:35:48.116Z,0
2016-07-24T01:36:46.788Z,0
2016-07-24T01:37:47.526Z,0
2016-07-24T01:38:46.876Z,0
2016-07-24T01:39:48.316Z,0
2016-07-24T01:40:48.383Z,0
2016-07-24T01:41:48.422Z,0
2016-07-24T01:42:47.076Z,0
2016-07-24T01:43:48.534Z,0
2016-07-24T01:44:48.554Z,0
2016-07-24T01:45:47.928Z,0
2016-07-24T01:46:48.665Z,0
2016-07-24T01:47:48.697Z,0
2016-07-24T01:48:48.063Z,0
2016-07-24T01:49:48.780Z,0
2016-07-24T01:50:48.851Z,0
2016-07-24T01:51:47.506Z,0
2016-07-24T01:52:48.230Z,0
2016-07-24T01:53:48.288Z,0
2016-07-24T01:54:48.321Z,0
2016-07-24T01:55:48.395Z,0
2016-07-24T01:56:49.185Z,0
2016-07-24T01:57:48.511Z,0
2016-07-24T01:58:48.543Z,0
2016-07-24T01:59:49.266Z,0
2016-07-24T02:00:48.631Z,0
2016-07-24T02:01:49.356Z,0
2016-07-24T02:02:48.779Z,0
2016-07-24T02:03:48.771Z,0
2016-07-24T02:04:49.521Z,0
2016-07-24T02:05:48.879Z,0
2016-07-24T02:06:49.594Z,0
2016-07-24T02:07:49.641Z,0
2016-07-24T02:08:49.743Z,0
2016-07-24T02:09:49.743Z,0
2016-07-24T02:10:49.794Z,0
2016-07-24T02:11:49.841Z,0
2016-07-24T02:12:48.498Z,0
2016-07-24T02:13:49.963Z,0
2016-07-24T02:14:49.996Z,0
2016-07-24T02:15:50.035Z,0
2016-07-24T02:16:50.093Z,0
2016-07-24T02:17:48.759Z,0
2016-07-24T02:18:49.499Z,0
2016-07-24T02:19:49.547Z,0
2016-07-24T02:20:50.303Z,0
2016-07-24T02:21:49.634Z,0
2016-07-24T02:22:49.678Z,0
2016-07-24T02:23:50.442Z,0
2016-07-24T02:24:50.457Z,0
2016-07-24T02:25:49.129Z,0
2016-07-24T02:26:50.603Z,0
2016-07-24T02:27:49.963Z,0
2016-07-24T02:28:50.679Z,0
2016-07-24T02:29:50.718Z,0
2016-07-24T02:30:50.076Z,0
2016-07-24T02:31:50.120Z,0
2016-07-24T02:32:50.874Z,0
2016-07-24T02:33:49.535Z,0
2016-07-24T02:34:49.556Z,0
2016-07-24T02:35:50.308Z,0
2016-07-24T02:36:51.031Z,0
2016-07-24T02:37:51.088Z,0
2016-07-24T02:38:50.444Z,0
2016-07-24T02:39:51.211Z,0
2016-07-24T02:40:50.572Z,0
2016-07-24T02:41:50.598Z,0
2016-07-24T02:42:51.350Z,0
2016-07-24T02:43:50.697Z,0
2016-07-24T02:44:51.454Z,0
2016-07-24T02:45:51.489Z,0
2016-07-24T02:46:51.543Z,0
2016-07-24T02:47:51.579Z,0
2016-07-24T02:48:50.931Z,0
2016-07-24T02:49:51.704Z,0
2016-07-24T02:50:51.044Z,0
2016-07-24T02:51:51.088Z,0
2016-07-24T02:52:51.136Z,0
2016-07-24T02:53:51.896Z,0
2016-07-24T02:54:51.231Z,0
2016-07-24T02:55:51.962Z,0
2016-07-24T02:56:52.022Z,0
2016-07-24T02:57:52.087Z,0
2016-07-24T02:58:51.426Z,0
2016-07-24T02:59:51.439Z,0
2016-07-24T03:00:51.507Z,0
2016-07-24T03:01:52.248Z,0
2016-07-24T03:02:51.605Z,0
2016-07-24T03:03:52.351Z,0
2016-07-24T03:04:51.678Z,0
2016-07-24T03:05:52.454Z,4
2016-07-24T03:06:52.527Z,4
2016-07-24T03:07:51.142Z,4
2016-07-24T03:08:52.583Z,0
2016-07-24T03:09:51.977Z,4
2016-07-24T03:10:52.670Z,4
2016-07-24T03:11:52.736Z,8
2016-07-24T03:12:52.758Z,4
2016-07-24T03:13:51.437Z,8
2016-07-24T03:14:52.181Z,8
2016-07-24T03:15:52.226Z,12
2016-07-24T03:16:52.974Z,12
2016-07-24T03:17:51.617Z,12
2016-07-24T03:18:51.666Z,16
2016-07-24T03:19:52.422Z,20
2016-07-24T03:20:52.453Z,24
2016-07-24T03:21:53.194Z,28
2016-07-24T03:22:53.273Z,32
2016-07-24T03:23:53.317Z,36
2016-07-24T03:24:53.338Z,44
2016-07-24T03:25:52.715Z,48
2016-07-24T03:26:53.482Z,60
2016-07-24T03:27:53.532Z,68
2016-07-24T03:28:53.566Z,84
2016-07-24T03:29:53.599Z,92
2016-07-24T03:30:53.653Z,108
2016-07-24T03:31:53.009Z,124
2016-07-24T03:32:53.722Z,140
2016-07-24T03:33:53.084Z,160
2016-07-24T03:34:53.859Z,184
2016-07-24T03:35:53.866Z,204
2016-07-24T03:36:53.939Z,232
2016-07-24T03:37:53.996Z,260
2016-07-24T03:38:53.357Z,300
2016-07-24T03:39:54.084Z,340
2016-07-24T03:40:52.751Z,384
2016-07-24T03:41:53.498Z,424
2016-07-24T03:42:54.232Z,468
2016-07-24T03:43:53.587Z,512
2016-07-24T03:44:54.322Z,556
2016-07-24T03:45:54.396Z,596
2016-07-24T03:46:54.437Z,640
2016-07-24T03:47:54.446Z,688
2016-07-24T03:48:53.821Z,732
2016-07-24T03:49:54.569Z,784
2016-07-24T03:50:54.629Z,828
2016-07-24T03:51:54.636Z,880
2016-07-24T03:52:54.712Z,932
2016-07-24T03:53:53.353Z,996
2016-07-24T03:54:54.093Z,1092
2016-07-24T03:55:53.451Z,1180
2016-07-24T03:56:54.951Z,1280
2016-07-24T03:57:54.256Z,1448
2016-07-24T03:58:54.315Z,1660
2016-07-24T03:59:55.059Z,1852
2016-07-24T04:00:55.089Z,2008
2016-07-24T04:01:54.474Z,2196
2016-07-24T04:02:55.217Z,2372
2016-07-24T04:03:55.258Z,2544
2016-07-24T04:04:55.267Z,2712
2016-07-24T04:05:54.626Z,2864
2016-07-24T04:06:55.381Z,2972
2016-07-24T04:07:54.777Z,3084
2016-07-24T04:08:55.467Z,3112
2016-07-24T04:09:55.514Z,3280
2016-07-24T04:10:54.900Z,3344
2016-07-24T04:11:54.939Z,2932
2016-07-24T04:12:54.971Z,3304
2016-07-24T04:13:55.698Z,3576
2016-07-24T04:14:55.787Z,4040
2016-07-24T04:15:55.841Z,4144
2016-07-24T04:16:55.887Z,4504
2016-07-24T04:17:55.947Z,4672
2016-07-24T04:18:55.988Z,4608
2016-07-24T04:19:56.026Z,4028
2016-07-24T04:20:56.089Z,3956
2016-07-24T04:21:56.121Z,3652
2016-07-24T04:22:54.774Z,3456
2016-07-24T04:23:56.181Z,3484
2016-07-24T04:24:55.556Z,3640
2016-07-24T04:25:55.585Z,4140
2016-07-24T04:26:55.670Z,4500
2016-07-24T04:27:56.396Z,5160
2016-07-24T04:28:55.061Z,5252
2016-07-24T04:29:56.476Z,5040
2016-07-24T04:30:55.842Z,5356
2016-07-24T04:31:55.180Z,5700
2016-07-24T04:32:55.928Z,5948
2016-07-24T04:33:56.711Z,6432
2016-07-24T04:34:56.740Z,7128
2016-07-24T04:35:56.810Z,7708
2016-07-24T04:36:56.837Z,7996
2016-07-24T04:37:56.870Z,8008
2016-07-24T04:38:56.235Z,8092
2016-07-24T04:39:56.992Z,8304
2016-07-24T04:40:56.307Z,8348
2016-07-24T04:41:56.380Z,8900
2016-07-24T04:42:57.118Z,9124
2016-07-24T04:43:57.395Z,9404
2016-07-24T04:44:56.529Z,9872
2016-07-24T04:45:57.242Z,9780
2016-07-24T04:46:56.639Z,9636
2016-07-24T04:47:56.721Z,9704
2016-07-24T04:48:56.709Z,10136
2016-07-24T04:49:57.489Z,10344
2016-07-24T04:50:57.518Z,11220
2016-07-24T04:51:57.561Z,10704
2016-07-24T04:52:56.906Z,11764
2016-07-24T04:53:56.971Z,12212
2016-07-24T04:54:57.720Z,12512
2016-07-24T04:55:57.035Z,12780
2016-07-24T04:56:57.083Z,12976
2016-07-24T04:57:57.151Z,13188
2016-07-24T04:58:57.909Z,13468
2016-07-24T04:59:57.244Z,13644
2016-07-24T05:00:57.980Z,13920
2016-07-24T05:01:58.093Z,14112
2016-07-24T05:02:58.125Z,14232
2016-07-24T05:03:58.155Z,14448
2016-07-24T05:04:58.206Z,14708
2016-07-24T05:05:58.263Z,14488
2016-07-24T05:06:58.309Z,14072
2016-07-24T05:07:57.620Z,14108
2016-07-24T05:08:58.381Z,15076
2016-07-24T05:09:57.736Z,16208
2016-07-24T05:10:58.491Z,16768
2016-07-24T05:11:58.516Z,15448
2016-07-24T05:12:58.588Z,16380
2016-07-24T05:13:58.636Z,16324
2016-07-24T05:14:58.693Z,12664
2016-07-24T05:15:58.714Z,17056
2016-07-24T05:16:58.078Z,16388
2016-07-24T05:17:58.818Z,18048
2016-07-24T05:18:58.901Z,18528
2016-07-24T05:19:58.249Z,19104
2016-07-24T05:20:58.289Z,19744
2016-07-24T05:21:58.565Z,20320
2016-07-24T05:22:59.060Z,20192
2016-07-24T05:23:58.465Z,20192
2016-07-24T05:24:58.487Z,19200
2016-07-24T05:25:59.256Z,18272
2016-07-24T05:26:59.278Z,21312
2016-07-24T05:27:59.308Z,21504
2016-07-24T05:28:59.357Z,22144
2016-07-24T05:29:58.744Z,22080
2016-07-24T05:30:59.489Z,22496
2016-07-24T05:31:59.547Z,22624
2016-07-24T05:32:58.912Z,22400
2016-07-24T05:33:58.946Z,22272
2016-07-24T05:34:59.693Z,22048
2016-07-24T05:35:59.730Z,21888
2016-07-24T05:36:58.361Z,22080
2016-07-24T05:37:59.117Z,22048
2016-07-24T05:38:59.183Z,22112
2016-07-24T05:39:59.924Z,22336
2016-07-24T05:40:59.968Z,22240
2016-07-24T05:42:00.047Z,22976
2016-07-24T05:42:59.374Z,22624
2016-07-24T05:44:00.141Z,22592
2016-07-24T05:45:00.169Z,22464
2016-07-24T05:46:00.232Z,22592
2016-07-24T05:47:00.277Z,22464
2016-07-24T05:47:59.975Z,22624
2016-07-24T05:49:00.351Z,22976
2016-07-24T05:50:00.449Z,23232
2016-07-24T05:50:59.787Z,23616
2016-07-24T05:52:00.520Z,23872
2016-07-24T05:52:59.849Z,23744
2016-07-24T05:54:00.642Z,23648
2016-07-24T05:55:00.701Z,22848
2016-07-24T05:56:00.744Z,22912
2016-07-24T05:57:00.754Z,21312
2016-07-24T05:58:00.844Z,17192
2016-07-24T05:59:00.873Z,19776
2016-07-24T06:00:00.910Z,22464
2016-07-24T06:01:00.969Z,25888
2016-07-24T06:02:01.025Z,26528
2016-07-24T06:03:01.100Z,27328
2016-07-24T06:04:00.464Z,27872
2016-07-24T06:05:01.172Z,28032
2016-07-24T06:06:01.221Z,28256
2016-07-24T06:07:01.354Z,28256
2016-07-24T06:08:01.331Z,28320
2016-07-24T06:09:01.398Z,28576
2016-07-24T06:10:01.423Z,28736
2016-07-24T06:11:00.790Z,29472
2016-07-24T06:12:01.790Z,29824
2016-07-24T06:13:01.590Z,28832
2016-07-24T06:14:00.916Z,30560
2016-07-24T06:15:01.724Z,31072
2016-07-24T06:16:01.755Z,30720
2016-07-24T06:17:01.788Z,31200
2016-07-24T06:18:01.823Z,32992
2016-07-24T06:19:01.885Z,32736
2016-07-24T06:20:01.966Z,32448
2016-07-24T06:21:01.278Z,32480
2016-07-24T06:22:02.056Z,31488
2016-07-24T06:23:01.388Z,31168
2016-07-24T06:24:02.155Z,34784
2016-07-24T06:25:02.208Z,32864
2016-07-24T06:26:00.847Z,37280
2016-07-24T06:27:02.342Z,35968
2016-07-24T06:28:02.374Z,39232
2016-07-24T06:29:02.429Z,41056
2016-07-24T06:30:02.435Z,40896
2016-07-24T06:31:01.782Z,38912
2016-07-24T06:32:01.867Z,37664
2016-07-24T06:33:01.905Z,38432
2016-07-24T06:34:02.627Z,38560
2016-07-24T06:35:02.687Z,38656
2016-07-24T06:36:02.794Z,38368
2016-07-24T06:37:02.821Z,38080
2016-07-24T06:38:02.831Z,39584
2016-07-24T06:39:02.253Z,39136
2016-07-24T06:40:02.961Z,40192
2016-07-24T06:41:02.986Z,39648
2016-07-24T06:42:03.082Z,40000
2016-07-24T06:43:03.110Z,41664
2016-07-24T06:44:02.466Z,42592
2016-07-24T06:45:03.242Z,42304
2016-07-24T06:46:03.269Z,42944
2016-07-24T06:47:02.635Z,43008
2016-07-24T06:48:03.529Z,44192
2016-07-24T06:49:03.402Z,41600
2016-07-24T06:50:03.464Z,39488
2016-07-24T06:51:02.835Z,41792
2016-07-24T06:52:02.887Z,43616
2016-07-24T06:53:03.622Z,45728
2016-07-24T06:54:03.690Z,45600
2016-07-24T06:55:03.009Z,45408
2016-07-24T06:56:03.800Z,45568
2016-07-24T06:57:03.126Z,47648
2016-07-24T06:58:02.466Z,48288
2016-07-24T06:59:03.237Z,49280
2016-07-24T07:00:03.975Z,47904
2016-07-24T07:01:03.313Z,48160
2016-07-24T07:02:04.100Z,46496
2016-07-24T07:03:03.436Z,36096
2016-07-24T07:04:03.472Z,57280
2016-07-24T07:05:04.251Z,52896
2016-07-24T07:06:03.575Z,58144
2016-07-24T07:07:04.545Z,57984
2016-07-24T07:08:04.445Z,71424
2016-07-24T07:09:04.405Z,78560
2016-07-24T07:10:04.483Z,76000
2016-07-24T07:11:04.523Z,71424
2016-07-24T07:12:04.580Z,61600
2016-07-24T07:13:04.197Z,41088
2016-07-24T07:14:04.668Z,23872
2016-07-24T07:15:04.710Z,21632
2016-07-24T07:16:04.787Z,50816
2016-07-24T07:17:04.115Z,23424
2016-07-24T07:18:04.203Z,46944
2016-07-24T07:19:03.535Z,53344
2016-07-24T07:20:04.297Z,64832
2016-07-24T07:21:05.051Z,73984
2016-07-24T07:22:05.066Z,51424
2016-07-24T07:23:04.432Z,76480
2016-07-24T07:24:04.466Z,77824
2016-07-24T07:25:05.349Z,48448
2016-07-24T07:26:05.282Z,79264
2016-07-24T07:27:05.348Z,80192
2016-07-24T07:28:05.393Z,73344
2016-07-24T07:29:04.730Z,73632
2016-07-24T07:30:05.597Z,76640
2016-07-24T07:31:05.537Z,78976
2016-07-24T07:32:05.573Z,84416
2016-07-24T07:33:05.663Z,37120
2016-07-24T07:34:05.020Z,93984
2016-07-24T07:35:05.887Z,82752
2016-07-24T07:36:05.096Z,27936
2016-07-24T07:37:05.844Z,28672
2016-07-24T07:38:05.924Z,33344
2016-07-24T07:39:04.542Z,24192
2016-07-24T07:40:06.157Z,74368
2016-07-24T07:41:06.024Z,27296
2016-07-24T07:42:06.103Z,20160
2016-07-24T07:43:05.447Z,42368
2016-07-24T07:44:05.513Z,62176
2016-07-24T07:45:05.620Z,54752
2016-07-24T07:46:06.326Z,49376
2016-07-24T07:47:05.661Z,77312
2016-07-24T07:48:06.703Z,61664
2016-07-24T07:49:06.448Z,59552
2016-07-24T07:50:06.475Z,64608
2016-07-24T07:51:05.851Z,49120
2016-07-24T07:52:06.613Z,23104
2016-07-24T07:53:06.664Z,25152
2016-07-24T07:54:06.726Z,38688
2016-07-24T07:55:06.042Z,46400
2016-07-24T07:56:06.783Z,24448
2016-07-24T07:57:06.878Z,32800
2016-07-24T07:58:06.883Z,47776
2016-07-24T07:59:06.263Z,28672
2016-07-24T08:00:06.999Z,29600
2016-07-24T08:01:06.359Z,30080
2016-07-24T08:02:07.140Z,22784
2016-07-24T08:03:06.476Z,30944
2016-07-24T08:04:07.230Z,26976
2016-07-24T08:05:07.237Z,59104
2016-07-24T08:06:06.592Z,58432
2016-07-24T08:07:07.331Z,52800
2016-07-24T08:09:07.480Z,28096
2016-07-24T08:10:06.822Z,77504
2016-07-24T08:11:07.557Z,53856
2016-07-24T08:12:07.599Z,80960
2016-07-24T08:13:07.852Z,102816
2016-07-24T08:14:07.686Z,100608
2016-07-24T08:15:07.763Z,104160
2016-07-24T08:16:07.098Z,105504
2016-07-24T08:17:07.163Z,103872
2016-07-24T08:18:07.888Z,37056
2016-07-24T08:19:07.950Z,105408
2016-07-24T08:20:07.311Z,100672
2016-07-24T08:21:08.051Z,100736
2016-07-24T08:22:08.110Z,88896
2016-07-24T08:23:08.132Z,77984
2016-07-24T08:24:07.510Z,91424
2016-07-24T08:25:07.801Z,68448
2016-07-24T08:26:08.330Z,73248
2016-07-24T08:27:08.355Z,95008
2016-07-24T08:28:08.390Z,92608
2016-07-24T08:29:08.455Z,90560
2016-07-24T08:30:08.516Z,92512
2016-07-24T08:31:08.552Z,96128
2016-07-24T08:32:08.613Z,98784
2016-07-24T08:33:08.653Z,94944
2016-07-24T08:34:08.712Z,66048
2016-07-24T08:35:08.891Z,39904
2016-07-24T08:36:08.098Z,42848
2016-07-24T08:37:08.853Z,33248
2016-07-24T08:38:08.881Z,36704
2016-07-24T08:39:08.937Z,33984
2016-07-24T08:40:09.010Z,33408
2016-07-24T08:41:08.352Z,33120
2016-07-24T08:42:09.089Z,34400
2016-07-24T08:43:08.437Z,41120
2016-07-24T08:44:08.488Z,24768
2016-07-24T08:45:09.270Z,22176
2016-07-24T08:46:09.306Z,36000
2016-07-24T08:47:07.977Z,43584
2016-07-24T08:48:08.834Z,37536
2016-07-24T08:49:09.451Z,25632
2016-07-24T08:50:09.489Z,29824
2016-07-24T08:51:09.582Z,17156
2016-07-24T08:52:08.909Z,29312
2016-07-24T08:53:09.654Z,30912
2016-07-24T08:54:09.707Z,23168
2016-07-24T08:55:09.791Z,28480
2016-07-24T08:56:09.117Z,26496
2016-07-24T08:57:09.135Z,45280
2016-07-24T08:58:09.203Z,70304
2016-07-24T08:59:10.234Z,49056
2016-07-24T09:00:08.622Z,36160
2016-07-24T09:01:10.033Z,0
2016-07-24T09:02:10.096Z,30688
2016-07-24T09:03:10.164Z,32
2016-07-24T09:04:09.509Z,0
2016-07-24T09:05:10.318Z,0
2016-07-24T09:06:10.312Z,32
2016-07-24T09:07:10.380Z,0
2016-07-24T09:08:09.786Z,168128
2016-07-24T09:09:10.469Z,93600
2016-07-24T09:10:10.531Z,61600
2016-07-24T09:11:09.837Z,58816
2016-07-24T09:12:10.580Z,51712
2016-07-24T09:13:10.681Z,49728
2016-07-24T09:14:10.716Z,49824
2016-07-24T09:15:09.477Z,49504
2016-07-24T09:16:10.792Z,49120
2016-07-24T09:17:10.178Z,46976
2016-07-24T09:18:10.891Z,51424
2016-07-24T09:19:10.966Z,49888
2016-07-24T09:20:11.040Z,45440
2016-07-24T09:21:11.293Z,94240
2016-07-24T09:22:11.098Z,106304
2016-07-24T09:23:10.457Z,105984
2016-07-24T09:24:11.251Z,106176
2016-07-24T09:25:10.586Z,106176
2016-07-24T09:26:11.336Z,107840
2016-07-24T09:27:11.370Z,108640
2016-07-24T09:28:11.418Z,110176
2016-07-24T09:29:11.493Z,108384
2016-07-24T09:30:11.525Z,110048
2016-07-24T09:31:11.593Z,103168
2016-07-24T09:32:10.937Z,109088
2016-07-24T09:33:11.674Z,105280
2016-07-24T09:34:11.699Z,101024
2016-07-24T09:35:11.074Z,99488
2016-07-24T09:36:11.844Z,103168
2016-07-24T09:37:12.079Z,112512
2016-07-24T09:38:11.955Z,111968
2016-07-24T09:39:11.294Z,117280
2016-07-24T09:40:11.321Z,114912
2016-07-24T09:41:11.358Z,110880
2016-07-24T09:42:11.435Z,105984
2016-07-24T09:43:12.210Z,106688
2016-07-24T09:44:12.228Z,105280
2016-07-24T09:45:11.605Z,102272
2016-07-24T09:46:12.336Z,107488
2016-07-24T09:47:12.368Z,111840
2016-07-24T09:48:12.073Z,107392
2016-07-24T09:49:11.792Z,97504
2016-07-24T09:50:12.531Z,102080
2016-07-24T09:51:12.595Z,105376
2016-07-24T09:52:12.656Z,104064
2016-07-24T09:53:12.710Z,106592
2016-07-24T09:54:12.074Z,110624
2016-07-24T09:55:12.769Z,104960
2016-07-24T09:56:12.880Z,113536
2016-07-24T09:57:12.201Z,106912
2016-07-24T09:58:12.948Z,113248
2016-07-24T09:59:12.969Z,111552
2016-07-24T10:00:13.062Z,87872
2016-07-24T10:01:12.398Z,104352
2016-07-24T10:02:13.165Z,102208
2016-07-24T10:03:13.172Z,104960
2016-07-24T10:04:13.261Z,103680
2016-07-24T10:05:13.321Z,109056
2016-07-24T10:06:13.369Z,114528
2016-07-24T10:07:13.403Z,116608
2016-07-24T10:08:12.753Z,124832
2016-07-24T10:09:12.797Z,126432
2016-07-24T10:10:12.866Z,127968
2016-07-24T10:11:13.605Z,129120
2016-07-24T10:12:12.973Z,130720
2016-07-24T10:13:13.687Z,131104
2016-07-24T10:14:13.727Z,132352
2016-07-24T10:15:13.104Z,135424
2016-07-24T10:16:13.878Z,136896
2016-07-24T10:17:13.201Z,141440
2016-07-24T10:18:13.961Z,141664
2016-07-24T10:19:13.997Z,145536
2016-07-24T10:20:14.078Z,142784
2016-07-24T10:21:14.107Z,137152
2016-07-24T10:22:14.184Z,135360
2016-07-24T10:23:13.520Z,138944
2016-07-24T10:24:14.272Z,142176
2016-07-24T10:25:14.334Z,142400
2016-07-24T10:26:13.650Z,140064
2016-07-24T10:27:14.434Z,140480
2016-07-24T10:28:13.062Z,138688
2016-07-24T10:29:14.544Z,139520
2016-07-24T10:30:13.160Z,141312
2016-07-24T10:31:14.643Z,140992
2016-07-24T10:32:13.991Z,139424
2016-07-24T10:33:14.730Z,135808
2016-07-24T10:34:14.760Z,133824
2016-07-24T10:35:14.855Z,128576
2016-07-24T10:36:14.901Z,127808
2016-07-24T10:37:17.968Z,124224
2016-07-24T10:38:14.291Z,133792
2016-07-24T10:39:15.111Z,131872
2016-07-24T10:40:15.114Z,117952
2016-07-24T10:41:16.549Z,119296
2016-07-24T10:42:15.462Z,75168
2016-07-24T10:43:14.522Z,120128
2016-07-24T10:44:13.896Z,122304
2016-07-24T10:45:15.325Z,170592
2016-07-24T10:46:14.696Z,177824
2016-07-24T10:47:14.747Z,160544
2016-07-24T10:48:15.797Z,141472
2016-07-24T10:49:16.951Z,145824
2016-07-24T10:50:15.581Z,86944
2016-07-24T10:51:15.638Z,156032
2016-07-24T10:52:15.697Z,149856
2016-07-24T10:53:15.791Z,161792
2016-07-24T10:54:15.098Z,115200
2016-07-24T10:55:15.178Z,97728
2016-07-24T10:56:17.112Z,58912
2016-07-24T10:57:15.942Z,58208
2016-07-24T10:58:16.723Z,87424
2016-07-24T10:59:16.090Z,170624
2016-07-24T11:00:17.324Z,141536
2016-07-24T11:01:15.460Z,149248
2016-07-24T11:02:16.263Z,129440
2016-07-24T11:04:16.324Z,141792
2016-07-24T11:05:16.402Z,140896
2016-07-24T11:06:16.400Z,138464
2016-07-24T11:07:16.508Z,145568
2016-07-24T11:08:15.838Z,156992
2016-07-24T11:09:16.583Z,137856
2016-07-24T11:10:15.228Z,156928
2016-07-24T11:11:16.691Z,144320
2016-07-24T11:12:16.073Z,110976
2016-07-24T11:13:16.801Z,146976
2016-07-24T11:14:17.068Z,143552
2016-07-24T11:15:16.196Z,146176
2016-07-24T11:16:16.242Z,130208
2016-07-24T11:17:16.987Z,140960
2016-07-24T11:18:17.076Z,138304
2016-07-24T11:19:17.116Z,135584
2016-07-24T11:20:17.149Z,139456
2016-07-24T11:21:17.200Z,130304
2016-07-24T11:22:17.227Z,130912
2016-07-24T11:23:17.316Z,140864
2016-07-24T11:24:17.334Z,93408
2016-07-24T11:25:17.411Z,142752
2016-07-24T11:26:16.738Z,145984
2016-07-24T11:27:16.826Z,112352
2016-07-24T11:28:17.575Z,151520
2016-07-24T11:29:20.993Z,150912
2016-07-24T11:30:16.974Z,165056
2016-07-24T11:31:16.992Z,144768
2016-07-24T11:32:17.101Z,142240
2016-07-24T11:33:17.817Z,141792
2016-07-24T11:34:18.093Z,46240
2016-07-24T11:35:32.151Z,42240
2016-07-24T11:36:17.286Z,51136
2016-07-24T11:37:17.320Z,70144
2016-07-24T11:38:18.090Z,158912
2016-07-24T11:39:18.146Z,148800
2016-07-24T11:40:17.483Z,63392
2016-07-24T11:41:19.775Z,90048
2016-07-24T11:42:18.288Z,110080
2016-07-24T11:43:17.641Z,114656
2016-07-24T11:44:32.302Z,112192
2016-07-24T11:45:18.439Z,105536
2016-07-24T11:46:17.788Z,92352
2016-07-24T11:47:19.457Z,82144
2016-07-24T11:48:18.598Z,71776
2016-07-24T11:49:17.942Z,74624
2016-07-24T11:50:18.715Z,80064
2016-07-24T11:51:20.664Z,67616
2016-07-24T11:52:18.795Z,46912
2016-07-24T11:53:18.146Z,67008
2016-07-24T11:54:32.099Z,136224
2016-07-24T11:55:18.947Z,130912
2016-07-24T11:56:20.661Z,154592
2016-07-24T11:57:19.070Z,85056
2016-07-24T11:58:19.128Z,67616
2016-07-24T11:59:18.451Z,137120
2016-07-24T12:00:19.191Z,117184
2016-07-24T12:01:19.291Z,151648
2016-07-24T12:02:19.293Z,155968
2016-07-24T12:03:19.386Z,155840
2016-07-24T12:04:19.605Z,116096
2016-07-24T12:05:19.445Z,150720
2016-07-24T12:06:19.239Z,39904
2016-07-24T12:07:18.874Z,56256
2016-07-24T12:08:20.823Z,111104
2016-07-24T12:10:19.739Z,49248
2016-07-24T12:11:19.293Z,45984
2016-07-24T12:12:19.845Z,57472
2016-07-24T12:13:21.083Z,189408
2016-07-24T12:14:19.944Z,169536
2016-07-24T12:15:19.294Z,53312
2016-07-24T12:16:20.050Z,91104
2016-07-24T12:17:19.418Z,61472
2016-07-24T12:18:20.150Z,58912
2016-07-24T12:19:20.187Z,123712
2016-07-24T12:20:20.264Z,121024
2016-07-24T12:21:19.612Z,123232
2016-07-24T12:22:23.760Z,99456
2016-07-24T12:23:20.641Z,29888
2016-07-24T12:24:22.078Z,31520
2016-07-24T12:25:20.532Z,32320
2016-07-24T12:26:19.923Z,33632
2016-07-24T12:27:21.631Z,30368
2016-07-24T12:28:19.988Z,28512
2016-07-24T12:29:20.731Z,31872
2016-07-24T12:30:22.252Z,47808
2016-07-24T12:31:21.471Z,30464
2016-07-24T12:32:20.926Z,30464
2016-07-24T12:33:34.843Z,35104
2016-07-24T12:34:20.983Z,37344
2016-07-24T12:35:21.058Z,39104
2016-07-24T12:36:21.340Z,46368
2016-07-24T12:37:22.732Z,45248
2016-07-24T12:38:20.513Z,44128
2016-07-24T12:39:21.292Z,40992
2016-07-24T12:40:20.614Z,38016
2016-07-24T12:41:21.852Z,43456
2016-07-24T12:42:20.768Z,74208
2016-07-24T12:43:21.506Z,97344
2016-07-24T12:44:35.394Z,59168
2016-07-24T12:45:21.583Z,47264
2016-07-24T12:46:20.917Z,48608
2016-07-24T12:47:21.705Z,58624
2016-07-24T12:48:23.357Z,66368
2016-07-24T12:49:21.103Z,107840
2016-07-24T12:50:22.067Z,110432
2016-07-24T12:51:21.183Z,76064
2016-07-24T12:52:20.549Z,84992
2016-07-24T12:53:23.083Z,104672
2016-07-24T12:54:22.036Z,130016
2016-07-24T12:55:21.420Z,120864
2016-07-24T12:56:21.463Z,125088
2016-07-24T12:57:22.214Z,123872
2016-07-24T12:58:21.547Z,86016
2016-07-24T12:59:22.968Z,139072
2016-07-24T13:00:35.567Z,81056
2016-07-24T13:01:22.427Z,45280
2016-07-24T13:02:22.014Z,40000
2016-07-24T13:03:24.143Z,46176
2016-07-24T13:04:21.860Z,52032
2016-07-24T13:05:21.949Z,48544
2016-07-24T13:06:21.978Z,46976
2016-07-24T13:07:22.074Z,58496
2016-07-24T13:08:22.072Z,49184
2016-07-24T13:09:22.859Z,45600
2016-07-24T13:10:22.178Z,39904
2016-07-24T13:11:22.270Z,28320
2016-07-24T13:12:22.293Z,27456
2016-07-24T13:13:23.030Z,31840
2016-07-24T13:14:23.109Z,35840
2016-07-24T13:15:23.180Z,37152
2016-07-24T13:16:22.728Z,44480
2016-07-24T13:17:22.587Z,37376
2016-07-24T13:18:22.604Z,39616
2016-07-24T13:19:22.666Z,37408
2016-07-24T13:20:23.431Z,39168
2016-07-24T13:21:22.784Z,32576
2016-07-24T13:22:23.519Z,32128